sensor_id;sensor_type;location;lat;lon;timestamp;pressure;altitude;pressure_sealevel;temperature;humidity
10587;BME280;5341;47.606;7.576;2023-04-25T00:00:48;98313.47;;;15.11;48.20
10587;BME280;5341;47.606;7.576;2023-04-25T00:03:18;98315.56;;;15.09;48.24
10587;BME280;5341;47.606;7.576;2023-04-25T00:05:45;98314.50;;;15.10;48.37
10587;BME280;5341;47.606;7.576;2023-04-25T00:08:13;98317.44;;;15.08;48.27
10587;BME280;5341;47.606;7.576;2023-04-25T00:10:41;98312.28;;;15.07;48.25
10587;BME280;5341;47.606;7.576;2023-04-25T00:13:08;98318.72;;;15.06;48.43
10587;BME280;5341;47.606;7.576;2023-04-25T00:15:37;98309.81;;;15.05;48.42
10587;BME280;5341;47.606;7.576;2023-04-25T00:18:07;98306.28;;;15.05;48.45
10587;BME280;5341;47.606;7.576;2023-04-25T00:20:37;98308.16;;;15.04;48.30
10587;BME280;5341;47.606;7.576;2023-04-25T00:23:05;98312.72;;;15.04;48.46
10587;BME280;5341;47.606;7.576;2023-04-25T00:25:33;98303.00;;;15.03;48.53
10587;BME280;5341;47.606;7.576;2023-04-25T00:28:01;98302.19;;;15.02;48.38
10587;BME280;5341;47.606;7.576;2023-04-25T00:30:28;98302.19;;;15.02;48.51
10587;BME280;5341;47.606;7.576;2023-04-25T00:32:56;98301.56;;;15.00;48.49
10587;BME280;5341;47.606;7.576;2023-04-25T00:35:23;98295.34;;;15.00;48.39
10587;BME280;5341;47.606;7.576;2023-04-25T00:37:53;98296.38;;;14.99;48.46
10587;BME280;5341;47.606;7.576;2023-04-25T00:40:22;98295.56;;;14.98;48.57
10587;BME280;5341;47.606;7.576;2023-04-25T00:42:52;98299.31;;;14.97;48.44
10587;BME280;5341;47.606;7.576;2023-04-25T00:45:20;98306.56;;;14.97;48.47
10587;BME280;5341;47.606;7.576;2023-04-25T00:47:47;98299.53;;;14.95;48.26
10587;BME280;5341;47.606;7.576;2023-04-25T00:50:15;98300.59;;;14.94;48.36
10587;BME280;5341;47.606;7.576;2023-04-25T00:52:44;98297.06;;;14.94;48.33
10587;BME280;5341;47.606;7.576;2023-04-25T00:55:13;98294.59;;;14.92;48.34
10587;BME280;5341;47.606;7.576;2023-04-25T00:57:42;98295.84;;;14.90;48.39
10587;BME280;5341;47.606;7.576;2023-04-25T01:00:10;98295.03;;;14.89;48.46
10587;BME280;5341;47.606;7.576;2023-04-25T01:02:39;98293.38;;;14.88;48.40
10587;BME280;5341;47.606;7.576;2023-04-25T01:05:08;98290.91;;;14.87;48.22
10587;BME280;5341;47.606;7.576;2023-04-25T01:07:36;98297.34;;;14.86;48.48
10587;BME280;5341;47.606;7.576;2023-04-25T01:10:04;98297.56;;;14.84;48.57
10587;BME280;5341;47.606;7.576;2023-04-25T01:12:33;98294.28;;;14.82;48.57
10587;BME280;5341;47.606;7.576;2023-04-25T01:15:01;98290.75;;;14.82;48.50
10587;BME280;5341;47.606;7.576;2023-04-25T01:17:29;98288.28;;;14.80;48.46
10587;BME280;5341;47.606;7.576;2023-04-25T01:19:57;98283.13;;;14.79;48.53
10587;BME280;5341;47.606;7.576;2023-04-25T01:22:26;98276.28;;;14.76;48.44
10587;BME280;5341;47.606;7.576;2023-04-25T01:24:54;98272.19;;;14.74;48.45
10587;BME280;5341;47.606;7.576;2023-04-25T01:27:22;98267.84;;;14.73;48.42
10587;BME280;5341;47.606;7.576;2023-04-25T01:29:50;98272.63;;;14.71;48.27
10587;BME280;5341;47.606;7.576;2023-04-25T01:32:18;98269.34;;;14.69;48.54
10587;BME280;5341;47.606;7.576;2023-04-25T01:34:46;98271.44;;;14.67;48.46
10587;BME280;5341;47.606;7.576;2023-04-25T01:37:13;98270.81;;;14.64;48.46
10587;BME280;5341;47.606;7.576;2023-04-25T01:39:43;98261.31;;;14.62;48.54
10587;BME280;5341;47.606;7.576;2023-04-25T01:42:10;98254.50;;;14.59;48.44
10587;BME280;5341;47.606;7.576;2023-04-25T01:44:38;98258.47;;;14.57;48.41
10587;BME280;5341;47.606;7.576;2023-04-25T01:47:05;98247.94;;;14.55;48.37
10587;BME280;5341;47.606;7.576;2023-04-25T01:49:33;98245.47;;;14.54;48.41
10587;BME280;5341;47.606;7.576;2023-04-25T01:52:02;98244.84;;;14.52;48.42
10587;BME280;5341;47.606;7.576;2023-04-25T01:54:30;98252.31;;;14.50;48.46
10587;BME280;5341;47.606;7.576;2023-04-25T01:57:01;98247.16;;;14.48;48.53
10587;BME280;5341;47.606;7.576;2023-04-25T01:59:29;98241.19;;;14.46;48.52
10587;BME280;5341;47.606;7.576;2023-04-25T02:02:06;98240.56;;;14.44;48.58
10587;BME280;5341;47.606;7.576;2023-04-25T02:04:35;98246.16;;;14.43;48.42
10587;BME280;5341;47.606;7.576;2023-04-25T02:07:03;98254.41;;;14.41;48.43
10587;BME280;5341;47.606;7.576;2023-04-25T02:09:48;98246.56;;;14.40;48.38
10587;BME280;5341;47.606;7.576;2023-04-25T02:12:19;98238.13;;;14.36;48.51
10587;BME280;5341;47.606;7.576;2023-04-25T02:15:13;98237.53;;;14.34;48.57
10587;BME280;5341;47.606;7.576;2023-04-25T02:18:03;98238.78;;;14.31;48.57
10587;BME280;5341;47.606;7.576;2023-04-25T02:20:34;98238.16;;;14.29;48.51
10587;BME280;5341;47.606;7.576;2023-04-25T02:23:02;98232.19;;;14.27;48.29
10587;BME280;5341;47.606;7.576;2023-04-25T02:25:31;98235.91;;;14.26;48.64
10587;BME280;5341;47.606;7.576;2023-04-25T02:28:00;98232.63;;;14.24;48.55
10587;BME280;5341;47.606;7.576;2023-04-25T02:30:29;98227.47;;;14.23;48.51
10587;BME280;5341;47.606;7.576;2023-04-25T02:32:56;98226.88;;;14.21;48.59
10587;BME280;5341;47.606;7.576;2023-04-25T02:35:24;98223.56;;;14.19;48.43
10587;BME280;5341;47.606;7.576;2023-04-25T02:37:54;98222.94;;;14.17;48.36
10587;BME280;5341;47.606;7.576;2023-04-25T02:40:21;98225.84;;;14.15;48.64
10587;BME280;5341;47.606;7.576;2023-04-25T02:42:49;98225.03;;;14.15;48.37
10587;BME280;5341;47.606;7.576;2023-04-25T02:45:21;98219.88;;;14.13;48.40
10587;BME280;5341;47.606;7.576;2023-04-25T02:47:49;98223.63;;;14.12;48.51
10587;BME280;5341;47.606;7.576;2023-04-25T02:50:19;98220.31;;;14.10;48.46
10587;BME280;5341;47.606;7.576;2023-04-25T02:52:46;98212.69;;;14.07;48.64
10587;BME280;5341;47.606;7.576;2023-04-25T02:55:19;98215.59;;;14.05;48.53
10587;BME280;5341;47.606;7.576;2023-04-25T02:57:47;98212.91;;;14.05;48.57
10587;BME280;5341;47.606;7.576;2023-04-25T03:00:24;98209.59;;;14.03;48.61
10587;BME280;5341;47.606;7.576;2023-04-25T03:02:52;98210.88;;;14.01;48.55
10587;BME280;5341;47.606;7.576;2023-04-25T03:05:20;98205.50;;;14.01;48.58
10587;BME280;5341;47.606;7.576;2023-04-25T03:07:48;98198.47;;;14.00;48.72
10587;BME280;5341;47.606;7.576;2023-04-25T03:10:17;98196.00;;;13.98;48.66
10587;BME280;5341;47.606;7.576;2023-04-25T03:12:45;98196.00;;;13.98;48.44
10587;BME280;5341;47.606;7.576;2023-04-25T03:15:13;98186.28;;;13.97;48.63
10587;BME280;5341;47.606;7.576;2023-04-25T03:17:44;98194.59;;;13.96;48.59
10587;BME280;5341;47.606;7.576;2023-04-25T03:20:13;98184.03;;;13.94;48.62
10587;BME280;5341;47.606;7.576;2023-04-25T03:22:40;98184.25;;;13.93;48.60
10587;BME280;5341;47.606;7.576;2023-04-25T03:25:08;98181.56;;;13.93;48.49
10587;BME280;5341;47.606;7.576;2023-04-25T03:27:36;98171.66;;;13.93;48.78
10587;BME280;5341;47.606;7.576;2023-04-25T03:30:05;98165.66;;;13.91;48.71
10587;BME280;5341;47.606;7.576;2023-04-25T03:32:38;98156.75;;;13.91;48.58
10587;BME280;5341;47.606;7.576;2023-04-25T03:35:08;98158.63;;;13.90;48.79
10587;BME280;5341;47.606;7.576;2023-04-25T03:37:36;98160.50;;;13.90;48.77
10587;BME280;5341;47.606;7.576;2023-04-25T03:40:07;98151.59;;;13.89;48.96
10587;BME280;5341;47.606;7.576;2023-04-25T03:43:03;98158.03;;;13.88;48.97
10587;BME280;5341;47.606;7.576;2023-04-25T03:45:32;98162.56;;;13.88;48.91
10587;BME280;5341;47.606;7.576;2023-04-25T03:48:00;98158.25;;;13.87;48.90
10587;BME280;5341;47.606;7.576;2023-04-25T03:50:31;98165.50;;;13.86;48.80
10587;BME280;5341;47.606;7.576;2023-04-25T03:52:58;98178.94;;;13.86;48.93
10587;BME280;5341;47.606;7.576;2023-04-25T03:55:30;98175.41;;;13.86;49.13
10587;BME280;5341;47.606;7.576;2023-04-25T03:57:58;98174.59;;;13.85;48.88
10587;BME280;5341;47.606;7.576;2023-04-25T04:00:26;98171.91;;;13.85;48.94
10587;BME280;5341;47.606;7.576;2023-04-25T04:02:54;98166.53;;;13.85;49.05
10587;BME280;5341;47.606;7.576;2023-04-25T04:05:22;98173.78;;;13.85;48.72
10587;BME280;5341;47.606;7.576;2023-04-25T04:07:55;98174.00;;;13.83;48.86
10587;BME280;5341;47.606;7.576;2023-04-25T04:10:23;98171.72;;;13.80;48.94
10587;BME280;5341;47.606;7.576;2023-04-25T04:12:51;98175.66;;;13.77;48.81
10587;BME280;5341;47.606;7.576;2023-04-25T04:15:23;98170.50;;;13.76;48.72
10587;BME280;5341;47.606;7.576;2023-04-25T04:17:50;98166.63;;;13.72;48.84
10587;BME280;5341;47.606;7.576;2023-04-25T04:20:18;98160.84;;;13.68;49.02
10587;BME280;5341;47.606;7.576;2023-04-25T04:22:46;98161.88;;;13.67;48.83
10587;BME280;5341;47.606;7.576;2023-04-25T04:25:16;98163.16;;;13.65;49.12
10587;BME280;5341;47.606;7.576;2023-04-25T04:28:19;98150.75;;;13.64;49.22
10587;BME280;5341;47.606;7.576;2023-04-25T04:31:05;98158.38;;;13.67;49.12
10587;BME280;5341;47.606;7.576;2023-04-25T04:33:33;98148.44;;;13.67;49.22
10587;BME280;5341;47.606;7.576;2023-04-25T04:36:03;98149.28;;;13.68;49.29
10587;BME280;5341;47.606;7.576;2023-04-25T04:38:33;98156.09;;;13.70;49.41
10587;BME280;5341;47.606;7.576;2023-04-25T04:41:05;98160.44;;;13.71;49.52
10587;BME280;5341;47.606;7.576;2023-04-25T04:43:54;98182.75;;;13.72;49.35
10587;BME280;5341;47.606;7.576;2023-04-25T04:46:50;98248.97;;;13.53;49.53
10587;BME280;5341;47.606;7.576;2023-04-25T04:49:38;98267.25;;;13.18;50.33
10587;BME280;5341;47.606;7.576;2023-04-25T04:52:08;98281.34;;;12.94;51.20
10587;BME280;5341;47.606;7.576;2023-04-25T04:55:08;98281.56;;;12.92;51.65
10587;BME280;5341;47.606;7.576;2023-04-25T04:58:05;98286.31;;;12.97;51.84
10587;BME280;5341;47.606;7.576;2023-04-25T05:00:48;98286.28;;;13.03;51.40
10587;BME280;5341;47.606;7.576;2023-04-25T05:03:34;98269.53;;;13.08;51.84
10587;BME280;5341;47.606;7.576;2023-04-25T05:06:03;98257.56;;;13.10;51.90
10587;BME280;5341;47.606;7.576;2023-04-25T05:08:51;98254.69;;;13.12;51.55
10587;BME280;5341;47.606;7.576;2023-04-25T05:11:42;98249.91;;;13.14;51.55
10587;BME280;5341;47.606;7.576;2023-04-25T05:14:40;98241.44;;;13.17;51.49
10587;BME280;5341;47.606;7.576;2023-04-25T05:17:31;98243.06;;;13.18;51.48
10587;BME280;5341;47.606;7.576;2023-04-25T05:20:17;98242.06;;;13.19;51.75
10587;BME280;5341;47.606;7.576;2023-04-25T05:23:05;98234.03;;;13.19;51.61
10587;BME280;5341;47.606;7.576;2023-04-25T05:25:51;98237.53;;;13.19;51.38
10587;BME280;5341;47.606;7.576;2023-04-25T05:28:42;98243.72;;;13.20;51.91
10587;BME280;5341;47.606;7.576;2023-04-25T05:31:38;98249.72;;;13.22;51.61
10587;BME280;5341;47.606;7.576;2023-04-25T05:34:12;98249.28;;;13.25;51.60
10587;BME280;5341;47.606;7.576;2023-04-25T05:36:50;98249.06;;;13.27;51.99
10587;BME280;5341;47.606;7.576;2023-04-25T05:39:18;98241.84;;;13.27;51.91
10587;BME280;5341;47.606;7.576;2023-04-25T05:42:05;98245.97;;;13.30;51.69
10587;BME280;5341;47.606;7.576;2023-04-25T05:44:54;98249.47;;;13.30;51.75
10587;BME280;5341;47.606;7.576;2023-04-25T05:47:43;98247.00;;;13.29;51.40
10587;BME280;5341;47.606;7.576;2023-04-25T05:50:27;98245.13;;;13.29;51.83
10587;BME280;5341;47.606;7.576;2023-04-25T05:53:00;98233.34;;;13.30;51.54
10587;BME280;5341;47.606;7.576;2023-04-25T05:55:34;98236.88;;;13.31;51.50
10587;BME280;5341;47.606;7.576;2023-04-25T05:58:16;98240.19;;;13.33;51.85
10587;BME280;5341;47.606;7.576;2023-04-25T06:00:43;98235.63;;;13.33;51.97
10587;BME280;5341;47.606;7.576;2023-04-25T06:03:13;98232.97;;;13.33;51.55
10587;BME280;5341;47.606;7.576;2023-04-25T06:05:41;98245.34;;;13.34;51.83
10587;BME280;5341;47.606;7.576;2023-04-25T06:08:09;98254.22;;;13.35;51.77
10587;BME280;5341;47.606;7.576;2023-04-25T06:10:38;98254.00;;;13.36;51.67
10587;BME280;5341;47.606;7.576;2023-04-25T06:13:05;98262.06;;;13.36;51.91
10587;BME280;5341;47.606;7.576;2023-04-25T06:15:34;98271.78;;;13.37;52.20
10587;BME280;5341;47.606;7.576;2023-04-25T06:18:02;98269.69;;;13.39;51.62
10587;BME280;5341;47.606;7.576;2023-04-25T06:20:31;98272.38;;;13.39;51.77
10587;BME280;5341;47.606;7.576;2023-04-25T06:23:00;98269.47;;;13.41;51.66
10587;BME280;5341;47.606;7.576;2023-04-25T06:25:39;98267.63;;;13.41;51.96
10587;BME280;5341;47.606;7.576;2023-04-25T06:28:07;98265.75;;;13.42;51.97
10587;BME280;5341;47.606;7.576;2023-04-25T06:30:35;98276.28;;;13.43;51.75
10587;BME280;5341;47.606;7.576;2023-04-25T06:33:08;98274.41;;;13.44;52.08
10587;BME280;5341;47.606;7.576;2023-04-25T06:35:37;98278.13;;;13.43;51.75
10587;BME280;5341;47.606;7.576;2023-04-25T06:38:06;98281.66;;;13.43;51.74
10587;BME280;5341;47.606;7.576;2023-04-25T06:40:37;98289.72;;;13.43;51.94
10587;BME280;5341;47.606;7.576;2023-04-25T06:43:06;98282.69;;;13.42;51.75
10587;BME280;5341;47.606;7.576;2023-04-25T06:46:03;98277.53;;;13.41;52.02
10587;BME280;5341;47.606;7.576;2023-04-25T06:48:33;98293.03;;;13.39;51.65
10587;BME280;5341;47.606;7.576;2023-04-25T06:51:02;98294.91;;;13.38;52.11
10587;BME280;5341;47.606;7.576;2023-04-25T06:53:30;98287.66;;;13.39;52.10
10587;BME280;5341;47.606;7.576;2023-04-25T06:56:01;98295.72;;;13.39;52.18
10587;BME280;5341;47.606;7.576;2023-04-25T06:58:44;98308.13;;;13.40;52.24
10587;BME280;5341;47.606;7.576;2023-04-25T07:01:20;98306.25;;;13.40;52.00
10587;BME280;5341;47.606;7.576;2023-04-25T07:03:50;98303.34;;;13.42;52.12
10587;BME280;5341;47.606;7.576;2023-04-25T07:06:20;98315.97;;;13.41;51.96
10587;BME280;5341;47.606;7.576;2023-04-25T07:08:48;98314.09;;;13.42;52.26
10587;BME280;5341;47.606;7.576;2023-04-25T07:11:15;98320.28;;;13.42;52.22
10587;BME280;5341;47.606;7.576;2023-04-25T07:13:43;98319.47;;;13.42;52.38
10587;BME280;5341;47.606;7.576;2023-04-25T07:16:10;98329.16;;;13.43;52.25
10587;BME280;5341;47.606;7.576;2023-04-25T07:18:38;98326.47;;;13.43;52.60
10587;BME280;5341;47.606;7.576;2023-04-25T07:21:06;98319.47;;;13.42;52.13
10587;BME280;5341;47.606;7.576;2023-04-25T07:23:36;98328.56;;;13.41;52.42
10587;BME280;5341;47.606;7.576;2023-04-25T07:26:11;98328.56;;;13.41;52.52
10587;BME280;5341;47.606;7.576;2023-04-25T07:28:54;98331.25;;;13.41;52.63
10587;BME280;5341;47.606;7.576;2023-04-25T07:31:22;98332.91;;;13.42;52.67
10587;BME280;5341;47.606;7.576;2023-04-25T07:33:51;98333.72;;;13.42;52.59
10587;BME280;5341;47.606;7.576;2023-04-25T07:36:18;98336.19;;;13.44;52.74
10587;BME280;5341;47.606;7.576;2023-04-25T07:38:48;98339.69;;;13.44;52.84
10587;BME280;5341;47.606;7.576;2023-04-25T07:41:15;98345.06;;;13.44;53.05
10587;BME280;5341;47.606;7.576;2023-04-25T07:43:43;98340.56;;;13.45;53.28
10587;BME280;5341;47.606;7.576;2023-04-25T07:46:12;98346.94;;;13.44;53.49
10587;BME280;5341;47.606;7.576;2023-04-25T07:48:42;98351.31;;;13.45;53.43
10587;BME280;5341;47.606;7.576;2023-04-25T07:51:09;98355.00;;;13.44;53.35
10587;BME280;5341;47.606;7.576;2023-04-25T07:53:38;98356.66;;;13.45;53.76
10587;BME280;5341;47.606;7.576;2023-04-25T07:56:12;98365.56;;;13.45;53.79
10587;BME280;5341;47.606;7.576;2023-04-25T07:58:43;98371.75;;;13.46;54.01
10587;BME280;5341;47.606;7.576;2023-04-25T08:01:13;98372.97;;;13.43;54.28
10587;BME280;5341;47.606;7.576;2023-04-25T08:03:49;98375.47;;;13.45;54.10
10587;BME280;5341;47.606;7.576;2023-04-25T08:06:23;98382.28;;;13.41;54.26
10587;BME280;5341;47.606;7.576;2023-04-25T08:09:08;98386.44;;;13.37;54.99
10587;BME280;5341;47.606;7.576;2023-04-25T08:11:41;98388.91;;;13.32;54.93
10587;BME280;5341;47.606;7.576;2023-04-25T08:14:12;98391.41;;;13.33;54.80
10587;BME280;5341;47.606;7.576;2023-04-25T08:16:43;98388.50;;;13.28;55.26
10587;BME280;5341;47.606;7.576;2023-04-25T08:19:10;98394.94;;;13.21;55.22
10587;BME280;5341;47.606;7.576;2023-04-25T08:21:38;98408.94;;;13.09;55.48
10587;BME280;5341;47.606;7.576;2023-04-25T08:24:10;98411.41;;;13.04;55.99
10587;BME280;5341;47.606;7.576;2023-04-25T08:26:41;98413.28;;;13.10;56.30
10587;BME280;5341;47.606;7.576;2023-04-25T08:29:14;98417.63;;;13.11;56.07
10587;BME280;5341;47.606;7.576;2023-04-25T08:31:46;98427.09;;;13.14;55.73
10587;BME280;5341;47.606;7.576;2023-04-25T08:34:18;98430.00;;;13.12;56.51
10587;BME280;5341;47.606;7.576;2023-04-25T08:36:50;98430.00;;;13.19;56.43
10587;BME280;5341;47.606;7.576;2023-04-25T08:39:39;98436.44;;;13.25;56.21
10587;BME280;5341;47.606;7.576;2023-04-25T08:42:34;98434.38;;;13.27;56.11
10587;BME280;5341;47.606;7.576;2023-04-25T08:45:05;98443.03;;;13.29;56.19
10587;BME280;5341;47.606;7.576;2023-04-25T08:47:38;98447.78;;;13.27;56.73
10587;BME280;5341;47.606;7.576;2023-04-25T08:50:08;98450.91;;;13.24;56.41
10587;BME280;5341;47.606;7.576;2023-04-25T08:52:37;98452.94;;;13.28;56.38
10587;BME280;5341;47.606;7.576;2023-04-25T08:55:09;98456.47;;;13.35;56.97
10587;BME280;5341;47.606;7.576;2023-04-25T08:57:40;98456.06;;;13.38;57.16
10587;BME280;5341;47.606;7.576;2023-04-25T09:00:10;98462.25;;;13.39;57.56
10587;BME280;5341;47.606;7.576;2023-04-25T09:02:42;98456.44;;;13.42;58.13
10587;BME280;5341;47.606;7.576;2023-04-25T09:05:12;98449.19;;;13.56;60.31
10587;BME280;5341;47.606;7.576;2023-04-25T09:07:40;98454.38;;;13.70;60.22
10587;BME280;5341;47.606;7.576;2023-04-25T09:10:08;98451.03;;;13.82;60.29
10587;BME280;5341;47.606;7.576;2023-04-25T09:12:38;98460.31;;;13.86;60.51
10587;BME280;5341;47.606;7.576;2023-04-25T09:15:11;98465.88;;;13.97;60.99
10587;BME280;5341;47.606;7.576;2023-04-25T09:18:05;98471.84;;;14.06;60.63
10587;BME280;5341;47.606;7.576;2023-04-25T09:20:41;98460.41;;;14.17;60.65
10587;BME280;5341;47.606;7.576;2023-04-25T09:23:09;98470.13;;;14.25;61.22
10587;BME280;5341;47.606;7.576;2023-04-25T09:25:39;98465.78;;;14.24;60.21
10587;BME280;5341;47.606;7.576;2023-04-25T09:28:10;98464.13;;;14.23;59.60
10587;BME280;5341;47.606;7.576;2023-04-25T09:30:39;98470.09;;;14.31;60.25
10587;BME280;5341;47.606;7.576;2023-04-25T09:33:11;98469.84;;;14.46;61.87
10587;BME280;5341;47.606;7.576;2023-04-25T09:35:44;98467.75;;;14.55;60.53
10587;BME280;5341;47.606;7.576;2023-04-25T09:38:20;98479.06;;;14.63;60.57
10587;BME280;5341;47.606;7.576;2023-04-25T09:40:59;98483.78;;;14.75;60.46
10587;BME280;5341;47.606;7.576;2023-04-25T09:43:36;98482.25;;;14.92;59.77
10587;BME280;5341;47.606;7.576;2023-04-25T09:46:08;98473.63;;;15.08;59.77
10587;BME280;5341;47.606;7.576;2023-04-25T09:48:40;98485.72;;;15.24;59.39
10587;BME280;5341;47.606;7.576;2023-04-25T09:51:15;98490.53;;;15.47;59.13
10587;BME280;5341;47.606;7.576;2023-04-25T09:53:46;98496.00;;;15.65;58.56
10587;BME280;5341;47.606;7.576;2023-04-25T09:56:25;98494.97;;;15.85;57.95
10587;BME280;5341;47.606;7.576;2023-04-25T09:58:54;98496.50;;;15.99;56.56
10587;BME280;5341;47.606;7.576;2023-04-25T10:01:25;98495.16;;;16.08;56.25
10587;BME280;5341;47.606;7.576;2023-04-25T10:04:06;98492.31;;;16.21;55.63
10587;BME280;5341;47.606;7.576;2023-04-25T10:06:52;98501.25;;;16.40;54.61
10587;BME280;5341;47.606;7.576;2023-04-25T10:09:21;98493.72;;;16.42;53.98
10587;BME280;5341;47.606;7.576;2023-04-25T10:11:53;98493.97;;;16.40;53.51
10587;BME280;5341;47.606;7.576;2023-04-25T10:14:22;98488.88;;;16.32;52.88
10587;BME280;5341;47.606;7.576;2023-04-25T10:16:53;98491.88;;;16.24;52.80
10587;BME280;5341;47.606;7.576;2023-04-25T10:19:21;98488.78;;;16.21;52.62
10587;BME280;5341;47.606;7.576;2023-04-25T10:21:52;98483.72;;;16.13;52.90
10587;BME280;5341;47.606;7.576;2023-04-25T10:24:20;98496.88;;;16.02;52.68
10587;BME280;5341;47.606;7.576;2023-04-25T10:26:48;98492.59;;;15.95;52.39
10587;BME280;5341;47.606;7.576;2023-04-25T10:29:22;98489.00;;;15.82;52.20
10587;BME280;5341;47.606;7.576;2023-04-25T10:31:50;98488.03;;;15.77;53.05
10587;BME280;5341;47.606;7.576;2023-04-25T10:34:19;98478.88;;;15.78;53.01
10587;BME280;5341;47.606;7.576;2023-04-25T10:36:51;98485.34;;;15.77;53.45
10587;BME280;5341;47.606;7.576;2023-04-25T10:39:23;98490.50;;;15.78;53.81
10587;BME280;5341;47.606;7.576;2023-04-25T10:41:56;98482.53;;;15.83;54.15
10587;BME280;5341;47.606;7.576;2023-04-25T10:44:26;98482.41;;;15.97;54.11
10587;BME280;5341;47.606;7.576;2023-04-25T10:46:55;98473.06;;;16.18;53.21
10587;BME280;5341;47.606;7.576;2023-04-25T10:49:32;98485.09;;;16.52;51.90
10587;BME280;5341;47.606;7.576;2023-04-25T10:52:18;98482.22;;;16.83;51.82
10587;BME280;5341;47.606;7.576;2023-04-25T10:54:46;98480.53;;;17.01;50.63
10587;BME280;5341;47.606;7.576;2023-04-25T10:57:36;98482.09;;;17.20;48.58
10587;BME280;5341;47.606;7.576;2023-04-25T11:00:09;98479.44;;;17.43;46.87
10587;BME280;5341;47.606;7.576;2023-04-25T11:02:41;98481.09;;;17.68;46.02
10587;BME280;5341;47.606;7.576;2023-04-25T11:05:10;98476.91;;;17.83;46.55
10587;BME280;5341;47.606;7.576;2023-04-25T11:07:39;98485.47;;;18.04;46.55
10587;BME280;5341;47.606;7.576;2023-04-25T11:10:14;98481.91;;;18.27;46.06
10587;BME280;5341;47.606;7.576;2023-04-25T11:12:41;98483.94;;;18.60;45.77
10587;BME280;5341;47.606;7.576;2023-04-25T11:15:09;98482.03;;;18.60;44.07
10587;BME280;5341;47.606;7.576;2023-04-25T11:17:36;98478.31;;;18.50;44.32
10587;BME280;5341;47.606;7.576;2023-04-25T11:20:07;98483.34;;;18.29;44.26
10587;BME280;5341;47.606;7.576;2023-04-25T11:22:39;98480.28;;;18.14;45.53
10587;BME280;5341;47.606;7.576;2023-04-25T11:25:09;98493.13;;;17.83;45.80
10587;BME280;5341;47.606;7.576;2023-04-25T11:27:49;98490.03;;;17.68;45.97
10587;BME280;5341;47.606;7.576;2023-04-25T11:30:17;98485.25;;;17.70;46.60
10587;BME280;5341;47.606;7.576;2023-04-25T11:32:45;98488.63;;;17.66;46.76
10587;BME280;5341;47.606;7.576;2023-04-25T11:35:13;98486.50;;;17.56;46.25
10587;BME280;5341;47.606;7.576;2023-04-25T11:37:43;98491.56;;;17.52;46.70
10587;BME280;5341;47.606;7.576;2023-04-25T11:40:11;98489.66;;;17.53;46.98
10587;BME280;5341;47.606;7.576;2023-04-25T11:42:41;98498.59;;;17.53;46.89
10587;BME280;5341;47.606;7.576;2023-04-25T11:45:10;98497.53;;;17.43;46.63
10587;BME280;5341;47.606;7.576;2023-04-25T11:47:38;98506.09;;;17.28;48.11
10587;BME280;5341;47.606;7.576;2023-04-25T11:50:07;98504.88;;;17.12;48.92
10587;BME280;5341;47.606;7.576;2023-04-25T11:52:38;98512.72;;;17.02;49.04
10587;BME280;5341;47.606;7.576;2023-04-25T11:55:09;98509.50;;;16.93;49.59
10587;BME280;5341;47.606;7.576;2023-04-25T11:57:38;98512.75;;;16.84;50.03
10587;BME280;5341;47.606;7.576;2023-04-25T12:00:09;98522.66;;;16.72;50.17
10587;BME280;5341;47.606;7.576;2023-04-25T12:02:41;98525.91;;;16.62;50.58
10587;BME280;5341;47.606;7.576;2023-04-25T12:05:09;98529.72;;;16.54;50.99
10587;BME280;5341;47.606;7.576;2023-04-25T12:07:37;98527.94;;;16.48;51.10
10587;BME280;5341;47.606;7.576;2023-04-25T12:10:09;98536.69;;;16.44;51.53
10587;BME280;5341;47.606;7.576;2023-04-25T12:12:37;98536.47;;;16.27;51.51
10587;BME280;5341;47.606;7.576;2023-04-25T12:15:12;98536.91;;;16.05;51.80
10587;BME280;5341;47.606;7.576;2023-04-25T12:17:42;98523.69;;;15.97;52.07
10587;BME280;5341;47.606;7.576;2023-04-25T12:20:13;98532.22;;;15.94;52.42
10587;BME280;5341;47.606;7.576;2023-04-25T12:22:41;98533.97;;;15.89;52.42
10587;BME280;5341;47.606;7.576;2023-04-25T12:25:34;98538.94;;;15.85;52.58
10587;BME280;5341;47.606;7.576;2023-04-25T12:28:10;98541.72;;;15.78;52.54
10587;BME280;5341;47.606;7.576;2023-04-25T12:30:52;98540.78;;;15.66;52.68
10587;BME280;5341;47.606;7.576;2023-04-25T12:33:20;98542.66;;;15.59;52.93
10587;BME280;5341;47.606;7.576;2023-04-25T12:35:48;98531.88;;;15.59;53.32
10587;BME280;5341;47.606;7.576;2023-04-25T12:38:21;98523.56;;;15.67;53.27
10587;BME280;5341;47.606;7.576;2023-04-25T12:40:50;98516.19;;;15.81;55.24
10587;BME280;5341;47.606;7.576;2023-04-25T12:43:18;98520.34;;;16.02;57.46
10587;BME280;5341;47.606;7.576;2023-04-25T12:45:48;98521.47;;;16.31;56.92
10587;BME280;5341;47.606;7.576;2023-04-25T12:48:16;98524.31;;;16.54;57.22
10587;BME280;5341;47.606;7.576;2023-04-25T12:50:44;98534.97;;;16.86;58.57
10587;BME280;5341;47.606;7.576;2023-04-25T12:53:13;98529.44;;;17.11;58.21
10587;BME280;5341;47.606;7.576;2023-04-25T12:55:41;98540.13;;;17.17;56.88
10587;BME280;5341;47.606;7.576;2023-04-25T12:58:10;98534.09;;;17.04;55.02
10587;BME280;5341;47.606;7.576;2023-04-25T13:00:38;98535.25;;;16.96;55.55
10587;BME280;5341;47.606;7.576;2023-04-25T13:03:05;98548.19;;;17.06;59.08
10587;BME280;5341;47.606;7.576;2023-04-25T13:05:33;98545.53;;;17.17;58.52
10587;BME280;5341;47.606;7.576;2023-04-25T13:08:01;98551.75;;;17.18;56.68
10587;BME280;5341;47.606;7.576;2023-04-25T13:10:28;98542.38;;;17.20;56.83
10587;BME280;5341;47.606;7.576;2023-04-25T13:12:56;98545.94;;;17.33;57.53
10587;BME280;5341;47.606;7.576;2023-04-25T13:15:25;98550.44;;;17.50;57.72
10587;BME280;5341;47.606;7.576;2023-04-25T13:17:52;98546.44;;;17.53;56.36
10587;BME280;5341;47.606;7.576;2023-04-25T13:20:20;98549.16;;;17.53;55.55
10587;BME280;5341;47.606;7.576;2023-04-25T13:22:48;98541.28;;;17.51;54.59
10587;BME280;5341;47.606;7.576;2023-04-25T13:25:15;98546.41;;;17.41;53.29
10587;BME280;5341;47.606;7.576;2023-04-25T13:27:43;98549.72;;;17.43;54.24
10587;BME280;5341;47.606;7.576;2023-04-25T13:30:11;98544.34;;;17.55;53.38
10587;BME280;5341;47.606;7.576;2023-04-25T13:32:40;98548.06;;;17.72;53.38
10587;BME280;5341;47.606;7.576;2023-04-25T13:35:09;98546.75;;;17.86;52.27